Etusivu
METAR-TAF:

METAR-TAF

Lentoasemat :

Macas, Ecuador

Leveyspiiri: 02-17-57-S, Pituuspiiri: 078-07-15-W, korkeus merenpinnasta: 1052 m

Tämänhetkinen sää

Tämä raportti tehtiin 2 tuntia ja 46 minuuttia sitten, kello 23.00 UTC
Tuuli 2 kn koillisesta
Lämpötila 23°C
Kosteus 83%
Ilmanpaine 1013 hPa
Näkyvyys 10 km tai enemmän
Hajanaisia pilviä 2600 ft:n korkeudessa
Hajonneita pilviä 11000 ft:n korkeudessa

METAR: SEMC 232300Z 04002KT 9999 SCT026 BKN110 23/20 Q1013 RMK A2994

Aika: 20:46 (01:46 UTC)


TAF: puuttuu

Säähavainnot ja -ennusteet yli 4000 lentoasemalta (METAR- ja TAF-raportit).

Käytössä olevat sääasemat on merkitty karttaan keltaisilla ja punaisilla pisteillä.

Aseta hiiri pisteen päälle nähdäksesi sääaseman nimen.

Klikkaa sitten nähdäksesi säähavainnot ja -ennusteet.

Kartan vaihtaminen: klikkaa mustalla rastilla varustettuja vihreitä pisteitä, niin voit zoomata sisään; viivalla varustettua vihreää pistettä, niin voit zoomata ulos tai vihreitä nuolia, niin pääset viereisille kartoille.


METAR-TAF: